createdAt,value
2023-05-15T00:02:14.470Z,11.38
2023-05-15T00:04:42.196Z,11.37
2023-05-15T00:07:10.420Z,11.34
2023-05-15T00:09:38.026Z,11.32
2023-05-15T00:12:05.864Z,11.28
2023-05-15T00:14:33.643Z,11.25
2023-05-15T00:17:01.313Z,11.25
2023-05-15T00:19:28.967Z,11.23
2023-05-15T00:21:56.899Z,11.22
2023-05-15T00:24:24.519Z,11.19
2023-05-15T00:26:52.409Z,11.15
2023-05-15T00:29:20.141Z,11.13
2023-05-15T00:31:48.124Z,11.09
2023-05-15T00:34:15.942Z,11.06
2023-05-15T00:36:44.267Z,10.97
2023-05-15T00:39:12.238Z,10.98
2023-05-15T00:41:41.959Z,10.93
2023-05-15T00:44:11.483Z,10.90
2023-05-15T00:46:40.298Z,10.88
2023-05-15T00:49:13.587Z,10.84
2023-05-15T00:51:42.468Z,10.84
2023-05-15T00:54:11.504Z,10.80
2023-05-15T00:56:40.481Z,10.79
2023-05-15T00:59:08.340Z,10.74
2023-05-15T01:01:36.301Z,10.76
2023-05-15T01:04:04.628Z,10.74
2023-05-15T01:06:33.055Z,10.72
2023-05-15T01:09:04.212Z,10.75
2023-05-15T01:11:36.565Z,10.72
2023-05-15T01:14:06.672Z,10.68
2023-05-15T01:16:36.234Z,10.65
2023-05-15T01:19:05.522Z,10.67
2023-05-15T01:21:39.245Z,10.66
2023-05-15T01:24:48.266Z,10.73
2023-05-15T01:27:21.484Z,10.77
2023-05-15T01:30:27.651Z,10.64
2023-05-15T01:33:19.798Z,10.63
2023-05-15T01:36:12.849Z,10.64
2023-05-15T01:38:49.088Z,10.59
2023-05-15T01:41:22.661Z,10.56
2023-05-15T01:43:56.737Z,10.55
2023-05-15T01:46:29.040Z,10.55
2023-05-15T01:49:03.315Z,10.56
2023-05-15T01:51:32.067Z,10.54
2023-05-15T01:54:00.428Z,10.57
2023-05-15T01:56:28.984Z,10.57
2023-05-15T01:58:57.442Z,10.58
2023-05-15T02:01:26.532Z,10.57
2023-05-15T02:03:55.587Z,10.61
2023-05-15T02:06:24.725Z,10.64
2023-05-15T02:08:55.348Z,10.67
2023-05-15T02:11:23.015Z,10.72
2023-05-15T02:13:51.950Z,10.73
2023-05-15T02:16:20.121Z,10.79
2023-05-15T02:18:48.435Z,10.83
2023-05-15T02:21:35.914Z,11.07
2023-05-15T02:24:04.177Z,11.01
2023-05-15T02:27:05.476Z,11.14
2023-05-15T02:29:51.795Z,11.19
2023-05-15T02:32:42.295Z,11.43
2023-05-15T02:35:32.056Z,11.52
2023-05-15T02:38:07.170Z,11.53
2023-05-15T02:40:37.571Z,11.59
2023-05-15T02:43:08.879Z,11.65
2023-05-15T02:45:36.960Z,11.72
2023-05-15T02:48:05.795Z,11.80
2023-05-15T02:50:34.107Z,11.86
2023-05-15T02:53:06.160Z,12.00
2023-05-15T02:55:34.672Z,12.05
2023-05-15T02:58:03.725Z,12.14
2023-05-15T03:00:31.247Z,12.24
2023-05-15T03:02:58.934Z,12.27
2023-05-15T03:05:27.084Z,12.37
2023-05-15T03:07:55.074Z,12.42
2023-05-15T03:10:24.377Z,12.51
2023-05-15T03:12:51.941Z,12.61
2023-05-15T03:15:20.343Z,12.69
2023-05-15T03:17:48.284Z,12.77
2023-05-15T03:20:16.520Z,12.86
2023-05-15T03:22:44.208Z,12.98
2023-05-15T03:25:13.372Z,13.04
2023-05-15T03:27:41.093Z,13.13
2023-05-15T03:30:09.283Z,13.26
2023-05-15T03:32:37.021Z,13.40
2023-05-15T03:35:04.936Z,13.51
2023-05-15T03:37:33.369Z,13.62
2023-05-15T03:40:01.153Z,13.72
2023-05-15T03:42:29.660Z,13.79
2023-05-15T03:44:57.440Z,13.89
2023-05-15T03:47:25.161Z,14.05
2023-05-15T03:49:54.110Z,14.16
2023-05-15T03:52:21.602Z,14.24
2023-05-15T03:54:50.593Z,14.30
2023-05-15T03:57:19.552Z,14.37
2023-05-15T03:59:47.108Z,14.46
2023-05-15T04:02:14.779Z,14.56
2023-05-15T04:04:42.389Z,14.62
2023-05-15T04:07:10.310Z,14.77
2023-05-15T04:09:38.862Z,14.81
2023-05-15T04:12:06.575Z,14.87
2023-05-15T04:14:34.172Z,14.97
2023-05-15T04:17:02.187Z,15.02
2023-05-15T04:19:29.906Z,15.00
2023-05-15T04:21:57.611Z,15.02
2023-05-15T04:24:26.483Z,15.00
2023-05-15T04:26:54.393Z,15.02
2023-05-15T04:29:22.139Z,15.07
2023-05-15T04:31:50.109Z,15.08
2023-05-15T04:34:18.887Z,15.14
2023-05-15T04:36:46.655Z,15.21
2023-05-15T04:39:14.464Z,15.30
2023-05-15T04:41:42.278Z,15.37
2023-05-15T04:44:10.054Z,15.48
2023-05-15T04:46:38.266Z,15.59
2023-05-15T04:49:06.814Z,15.73
2023-05-15T04:51:34.560Z,15.82
2023-05-15T04:54:02.402Z,15.96
2023-05-15T04:56:30.098Z,16.10
2023-05-15T04:58:57.829Z,16.20
2023-05-15T05:01:25.715Z,16.26
2023-05-15T05:03:53.344Z,16.36
2023-05-15T05:06:21.553Z,16.44
2023-05-15T05:08:49.285Z,16.48
2023-05-15T05:11:16.921Z,16.60
2023-05-15T05:13:44.408Z,16.71
2023-05-15T05:16:12.157Z,16.87
2023-05-15T05:18:39.781Z,16.95
2023-05-15T05:21:07.456Z,17.11
2023-05-15T05:23:35.077Z,17.18
2023-05-15T05:26:04.243Z,17.25
2023-05-15T05:28:33.815Z,17.43
2023-05-15T05:31:02.670Z,17.54
2023-05-15T05:33:30.477Z,17.63
2023-05-15T05:35:58.007Z,17.73
2023-05-15T05:38:27.731Z,17.90
2023-05-15T05:40:55.389Z,17.93
2023-05-15T05:43:22.936Z,18.05
2023-05-15T05:45:50.942Z,18.15
2023-05-15T05:48:18.534Z,18.29
2023-05-15T05:50:46.223Z,18.43
2023-05-15T05:53:13.727Z,18.61
2023-05-15T05:55:41.365Z,18.70
2023-05-15T05:58:15.120Z,18.83
2023-05-15T06:00:52.638Z,18.89
2023-05-15T06:03:21.555Z,18.98
2023-05-15T06:05:49.166Z,19.16
2023-05-15T06:08:17.101Z,19.35
2023-05-15T06:10:44.847Z,19.59
2023-05-15T06:13:14.844Z,19.57
2023-05-15T06:15:42.743Z,19.65
2023-05-15T06:18:10.420Z,19.74
2023-05-15T06:20:38.543Z,19.70
2023-05-15T06:23:06.094Z,19.66
2023-05-15T06:25:33.749Z,19.76
2023-05-15T06:28:01.417Z,19.80
2023-05-15T06:30:29.160Z,19.76
2023-05-15T06:32:56.756Z,19.89
2023-05-15T06:35:24.435Z,20.21
2023-05-15T06:37:53.196Z,20.26
2023-05-15T06:40:21.121Z,20.05
2023-05-15T06:42:48.858Z,19.71
2023-05-15T06:45:16.604Z,19.55
2023-05-15T06:47:44.387Z,19.69
2023-05-15T06:50:12.223Z,19.91
2023-05-15T06:52:40.041Z,19.82
2023-05-15T06:55:08.156Z,19.62
2023-05-15T06:57:35.989Z,19.46
2023-05-15T07:00:04.917Z,19.33
2023-05-15T07:02:34.509Z,20.08
2023-05-15T07:05:02.242Z,21.00
2023-05-15T07:07:32.599Z,21.08
2023-05-15T07:10:00.092Z,20.73
2023-05-15T07:12:27.707Z,20.68
2023-05-15T07:14:55.202Z,20.72
2023-05-15T07:17:22.892Z,20.90
2023-05-15T07:19:50.565Z,21.38
2023-05-15T07:22:18.260Z,22.17
2023-05-15T07:24:46.101Z,23.07
2023-05-15T07:27:13.780Z,23.52
2023-05-15T07:29:41.319Z,23.21
2023-05-15T07:32:22.344Z,22.73
2023-05-15T07:34:49.931Z,22.74
2023-05-15T07:37:17.470Z,23.28
2023-05-15T07:39:45.149Z,23.89
2023-05-15T07:42:12.906Z,24.06
2023-05-15T07:44:41.883Z,24.17
2023-05-15T07:47:12.044Z,24.77
2023-05-15T07:49:39.755Z,25.60
2023-05-15T07:52:07.554Z,26.25
2023-05-15T07:54:35.280Z,26.67
2023-05-15T07:57:02.974Z,27.27
2023-05-15T07:59:31.178Z,27.60
2023-05-15T08:01:58.751Z,28.20
2023-05-15T08:04:26.679Z,28.43
2023-05-15T08:06:54.361Z,28.77
2023-05-15T08:09:21.959Z,29.08
2023-05-15T08:11:49.642Z,29.50
2023-05-15T08:14:17.538Z,29.74
2023-05-15T08:16:45.150Z,29.96
2023-05-15T08:19:12.879Z,30.14
2023-05-15T08:21:40.993Z,30.15
2023-05-15T08:24:09.281Z,30.42
2023-05-15T08:26:36.886Z,30.50
2023-05-15T08:29:05.154Z,30.49
2023-05-15T08:31:33.191Z,30.50
2023-05-15T08:34:00.828Z,30.57
2023-05-15T08:36:28.598Z,30.50
2023-05-15T08:38:56.288Z,30.43
2023-05-15T08:41:40.661Z,30.54
2023-05-15T08:44:09.775Z,30.43
2023-05-15T08:46:37.551Z,30.66
2023-05-15T08:49:14.877Z,30.77
2023-05-15T08:51:42.816Z,31.02
2023-05-15T08:54:11.722Z,31.29
2023-05-15T08:56:39.542Z,31.83
2023-05-15T08:59:07.186Z,32.14
2023-05-15T09:01:36.163Z,32.27
2023-05-15T09:04:04.963Z,32.15
2023-05-15T09:06:33.979Z,31.72
2023-05-15T09:09:03.906Z,31.90
2023-05-15T09:11:32.387Z,32.11
2023-05-15T09:14:00.160Z,32.20
2023-05-15T09:16:28.099Z,32.32
2023-05-15T09:18:56.395Z,32.44
2023-05-15T09:21:29.617Z,33.14
2023-05-15T09:24:24.904Z,33.42
2023-05-15T09:27:06.957Z,32.90
2023-05-15T09:29:36.057Z,32.79
2023-05-15T09:32:06.508Z,33.06
2023-05-15T09:34:39.612Z,33.56
2023-05-15T09:37:09.968Z,34.00
2023-05-15T09:39:44.229Z,34.15
2023-05-15T09:42:14.355Z,34.33
2023-05-15T09:44:43.423Z,34.69
2023-05-15T09:47:13.861Z,35.11
2023-05-15T09:49:44.397Z,35.57
2023-05-15T09:52:12.151Z,36.02
2023-05-15T09:54:40.469Z,36.11
2023-05-15T09:57:10.240Z,35.89
2023-05-15T09:59:48.380Z,35.95
2023-05-15T10:02:31.795Z,36.36
2023-05-15T10:05:00.826Z,36.61
2023-05-15T10:07:36.281Z,36.40
2023-05-15T10:10:05.392Z,36.09
2023-05-15T10:12:36.711Z,36.64
2023-05-15T10:15:05.786Z,36.98
2023-05-15T10:17:36.970Z,37.09
2023-05-15T10:20:07.205Z,37.25
2023-05-15T10:22:42.126Z,37.18
2023-05-15T10:25:16.937Z,37.22
2023-05-15T10:27:46.714Z,36.68
2023-05-15T10:30:17.228Z,36.32
2023-05-15T10:32:45.960Z,36.13
2023-05-15T10:35:13.568Z,35.67
2023-05-15T10:37:41.316Z,35.78
2023-05-15T10:40:10.585Z,36.28
2023-05-15T10:42:38.731Z,36.55
2023-05-15T10:45:08.973Z,36.81
2023-05-15T10:47:41.084Z,37.27
2023-05-15T10:50:09.669Z,37.42
2023-05-15T10:52:38.667Z,37.52
2023-05-15T10:55:14.071Z,36.59
2023-05-15T10:57:42.064Z,36.45
2023-05-15T11:00:29.477Z,37.29
2023-05-15T11:02:58.870Z,37.62
2023-05-15T11:05:27.077Z,38.01
2023-05-15T11:08:16.104Z,38.80
2023-05-15T11:10:43.862Z,38.47
2023-05-15T11:13:12.239Z,38.43
2023-05-15T11:15:44.765Z,38.42
2023-05-15T11:18:13.345Z,38.12
2023-05-15T11:21:01.315Z,38.60
2023-05-15T11:23:28.943Z,37.86
2023-05-15T11:25:57.601Z,36.61
2023-05-15T11:28:30.005Z,34.81
2023-05-15T11:31:06.879Z,34.60
2023-05-15T11:33:34.737Z,34.81
2023-05-15T11:36:05.433Z,35.45
2023-05-15T11:38:39.101Z,35.93
2023-05-15T11:41:18.752Z,36.41
2023-05-15T11:43:46.837Z,36.35
2023-05-15T11:46:16.083Z,36.19
2023-05-15T11:48:47.937Z,36.30
2023-05-15T11:51:22.765Z,36.34
2023-05-15T11:53:52.023Z,36.44
2023-05-15T11:56:22.955Z,36.42
2023-05-15T11:58:58.420Z,36.32
2023-05-15T12:01:26.806Z,36.57
2023-05-15T12:03:55.224Z,36.57
2023-05-15T12:06:23.197Z,36.36
2023-05-15T12:08:52.954Z,36.00
2023-05-15T12:11:25.352Z,35.93
2023-05-15T12:13:54.990Z,35.93
2023-05-15T12:16:27.253Z,35.91
2023-05-15T12:18:57.411Z,35.70
2023-05-15T12:21:27.257Z,35.06
2023-05-15T12:26:29.367Z,34.08
2023-05-15T12:28:57.746Z,33.46
2023-05-15T12:31:25.709Z,32.96
2023-05-15T12:33:53.379Z,32.22
2023-05-15T12:36:22.029Z,31.49
2023-05-15T12:38:49.681Z,30.65
2023-05-15T12:41:20.492Z,29.68
2023-05-15T12:43:48.709Z,28.74
2023-05-15T12:46:16.252Z,28.23
2023-05-15T12:48:44.158Z,27.92
2023-05-15T12:51:11.725Z,27.59
2023-05-15T12:53:42.584Z,27.13
2023-05-15T12:56:10.347Z,26.52
2023-05-15T12:58:38.862Z,25.88
2023-05-15T13:01:06.644Z,25.40
2023-05-15T13:03:35.194Z,24.87
2023-05-15T13:06:03.864Z,24.61
2023-05-15T13:08:31.929Z,24.39
2023-05-15T13:11:01.126Z,24.06
2023-05-15T13:13:46.389Z,24.01
2023-05-15T13:16:25.246Z,23.71
2023-05-15T13:18:53.701Z,23.38
2023-05-15T13:21:21.616Z,23.24
2023-05-15T13:23:49.329Z,23.05
2023-05-15T13:26:17.207Z,22.93
2023-05-15T13:28:45.011Z,22.76
2023-05-15T13:31:12.802Z,22.69
2023-05-15T13:33:40.680Z,22.60
2023-05-15T13:36:08.684Z,22.58
2023-05-15T13:38:36.380Z,22.40
2023-05-15T13:41:05.145Z,22.27
2023-05-15T13:43:32.988Z,22.24
2023-05-15T13:46:00.705Z,22.18
2023-05-15T13:48:28.321Z,22.05
2023-05-15T13:50:56.208Z,21.91
2023-05-15T13:53:23.949Z,21.83
2023-05-15T13:55:51.670Z,21.77
2023-05-15T13:58:19.693Z,21.63
2023-05-15T14:00:48.714Z,21.62
2023-05-15T14:03:16.456Z,21.54
2023-05-15T14:05:44.417Z,21.45
2023-05-15T14:08:12.249Z,21.38
2023-05-15T14:10:39.767Z,21.42
2023-05-15T14:13:07.502Z,21.27
2023-05-15T14:15:35.117Z,21.22
2023-05-15T14:18:02.806Z,21.18
2023-05-15T14:20:30.578Z,21.12
2023-05-15T14:22:58.327Z,21.04
2023-05-15T14:25:25.965Z,20.97
2023-05-15T14:27:53.620Z,20.89
2023-05-15T14:30:22.151Z,20.82
2023-05-15T14:32:49.854Z,20.73
2023-05-15T14:35:17.519Z,20.66
2023-05-15T14:37:45.374Z,20.62
2023-05-15T14:40:13.465Z,20.58
2023-05-15T14:42:41.136Z,20.51
2023-05-15T14:45:09.300Z,20.47
2023-05-15T14:47:37.033Z,20.48
2023-05-15T14:50:05.064Z,20.47
2023-05-15T14:52:33.039Z,20.34
2023-05-15T14:55:09.247Z,20.37
2023-05-15T14:57:40.770Z,20.33
2023-05-15T15:00:09.707Z,20.29
2023-05-15T15:02:37.590Z,20.20
2023-05-15T15:05:05.786Z,20.15
2023-05-15T15:08:02.140Z,20.12
2023-05-15T15:10:30.893Z,20.02
2023-05-15T15:12:59.142Z,19.92
2023-05-15T15:15:27.207Z,19.97
2023-05-15T15:17:57.405Z,19.86
2023-05-15T15:20:27.169Z,19.93
2023-05-15T15:22:55.827Z,19.84
2023-05-15T15:25:23.567Z,19.89
2023-05-15T15:27:51.473Z,19.83
2023-05-15T15:30:19.367Z,19.82
2023-05-15T15:32:47.271Z,19.76
2023-05-15T15:35:15.101Z,19.80
2023-05-15T15:37:42.795Z,19.71
2023-05-15T15:40:11.146Z,19.65
2023-05-15T15:42:38.889Z,19.68
2023-05-15T15:45:07.022Z,19.58
2023-05-15T15:47:35.519Z,19.60
2023-05-15T15:50:03.391Z,19.58
2023-05-15T15:52:33.349Z,19.57
2023-05-15T15:55:01.097Z,19.55
2023-05-15T15:57:30.161Z,19.54
2023-05-15T15:59:58.302Z,19.45
2023-05-15T16:02:26.022Z,19.41
2023-05-15T16:04:53.664Z,19.38
2023-05-15T16:07:21.537Z,19.33
2023-05-15T16:09:56.879Z,19.30
2023-05-15T16:12:37.013Z,19.30
2023-05-15T16:15:20.977Z,19.27
2023-05-15T16:17:52.980Z,19.23
2023-05-15T16:20:21.340Z,19.21
2023-05-15T16:22:48.980Z,19.19
2023-05-15T16:25:16.536Z,19.15
2023-05-15T16:27:44.088Z,19.10
2023-05-15T16:30:12.412Z,19.12
2023-05-15T16:32:40.651Z,19.07
2023-05-15T16:35:08.945Z,19.02
2023-05-15T16:37:36.801Z,18.99
2023-05-15T16:40:04.945Z,18.95
2023-05-15T16:42:37.140Z,18.87
2023-05-15T16:45:05.747Z,18.88
2023-05-15T16:47:34.174Z,18.85
2023-05-15T16:50:01.917Z,18.81
2023-05-15T16:52:31.930Z,18.76
2023-05-15T16:54:59.642Z,18.72
2023-05-15T16:57:27.427Z,18.69
2023-05-15T16:59:56.552Z,18.66
2023-05-15T17:02:24.320Z,18.62
2023-05-15T17:04:53.374Z,18.55
2023-05-15T17:07:21.365Z,18.55
2023-05-15T17:09:48.975Z,18.52
2023-05-15T17:12:16.988Z,18.48
2023-05-15T17:14:44.671Z,18.47
2023-05-15T17:17:12.397Z,18.41
2023-05-15T17:19:40.078Z,18.36
2023-05-15T17:22:07.822Z,18.28
2023-05-15T17:24:49.417Z,18.26
2023-05-15T17:27:20.584Z,18.23
2023-05-15T17:29:49.002Z,18.19
2023-05-15T17:32:18.291Z,18.15
2023-05-15T17:34:46.995Z,18.12
2023-05-15T17:37:16.150Z,18.08
2023-05-15T17:39:43.855Z,17.99
2023-05-15T17:42:11.634Z,17.90
2023-05-15T17:44:39.370Z,17.98
2023-05-15T17:47:07.892Z,17.94
2023-05-15T17:49:36.006Z,17.87
2023-05-15T17:52:03.782Z,17.86
2023-05-15T17:54:31.425Z,17.81
2023-05-15T17:56:59.103Z,17.71
2023-05-15T17:59:26.724Z,17.67
2023-05-15T18:01:54.589Z,17.67
2023-05-15T18:04:22.293Z,17.60
2023-05-15T18:06:51.126Z,17.55
2023-05-15T18:09:23.131Z,17.48
2023-05-15T18:11:52.262Z,17.43
2023-05-15T18:14:20.251Z,17.40
2023-05-15T18:16:47.838Z,17.31
2023-05-15T18:19:15.626Z,17.36
2023-05-15T18:21:43.268Z,17.32
2023-05-15T18:24:12.367Z,17.19
2023-05-15T18:26:40.050Z,17.19
2023-05-15T18:29:07.867Z,17.10
2023-05-15T18:31:36.635Z,17.13
2023-05-15T18:34:05.592Z,17.11
2023-05-15T18:36:33.463Z,17.08
2023-05-15T18:39:02.674Z,16.97
2023-05-15T18:41:31.458Z,17.04
2023-05-15T18:43:59.122Z,17.06
2023-05-15T18:46:28.399Z,17.07
2023-05-15T18:48:56.373Z,16.94
2023-05-15T18:51:24.057Z,16.91
2023-05-15T18:53:52.059Z,16.84
2023-05-15T18:56:19.618Z,16.79
2023-05-15T18:58:47.511Z,16.72
2023-05-15T19:01:15.394Z,16.69
2023-05-15T19:03:43.114Z,16.64
2023-05-15T19:06:11.649Z,16.58
2023-05-15T19:08:39.254Z,16.58
2023-05-15T19:11:08.844Z,16.53
2023-05-15T19:13:36.575Z,16.50
2023-05-15T19:16:06.180Z,16.46
2023-05-15T19:18:34.032Z,16.45
2023-05-15T19:21:01.697Z,16.38
2023-05-15T19:23:29.419Z,16.42
2023-05-15T19:25:57.099Z,16.44
2023-05-15T19:28:24.713Z,16.38
2023-05-15T19:30:52.276Z,16.33
2023-05-15T19:33:19.943Z,16.34
2023-05-15T19:35:47.751Z,16.28
2023-05-15T19:38:15.591Z,16.23
2023-05-15T19:40:45.306Z,16.26
2023-05-15T19:43:14.315Z,16.20
2023-05-15T19:45:42.429Z,16.17
2023-05-15T19:48:10.226Z,16.09
2023-05-15T19:50:41.134Z,16.17
2023-05-15T19:53:08.957Z,16.17
2023-05-15T19:55:36.565Z,16.13
2023-05-15T19:58:04.412Z,16.09
2023-05-15T20:00:32.560Z,15.99
2023-05-15T20:03:01.018Z,16.01
2023-05-15T20:05:28.983Z,15.96
2023-05-15T20:07:56.594Z,15.88
2023-05-15T20:10:24.864Z,15.88
2023-05-15T20:12:52.685Z,15.78
2023-05-15T20:15:20.538Z,15.83
2023-05-15T20:17:48.298Z,15.84
2023-05-15T20:20:16.747Z,15.75
2023-05-15T20:22:44.875Z,15.77
2023-05-15T20:25:12.879Z,15.73
2023-05-15T20:27:40.540Z,15.67
2023-05-15T20:30:08.770Z,15.61
2023-05-15T20:32:37.315Z,15.54
2023-05-15T20:35:06.168Z,15.52
2023-05-15T20:37:34.642Z,15.50
2023-05-15T20:40:02.334Z,15.48
2023-05-15T20:42:30.257Z,15.45
2023-05-15T20:44:57.900Z,15.41
2023-05-15T20:47:25.851Z,15.35
2023-05-15T20:49:53.824Z,15.34
2023-05-15T20:52:21.739Z,15.30
2023-05-15T20:54:49.432Z,15.25
2023-05-15T20:57:17.004Z,15.19
2023-05-15T20:59:44.827Z,15.09
2023-05-15T21:02:12.400Z,15.11
2023-05-15T21:04:39.959Z,15.08
2023-05-15T21:07:08.297Z,15.02
2023-05-15T21:09:36.018Z,14.99
2023-05-15T21:12:04.254Z,14.95
2023-05-15T21:14:32.109Z,14.95
2023-05-15T21:16:59.899Z,14.86
2023-05-15T21:19:27.802Z,14.83
2023-05-15T21:21:55.799Z,14.85
2023-05-15T21:24:23.510Z,14.83
2023-05-15T21:26:51.351Z,14.81
2023-05-15T21:29:19.080Z,14.77
2023-05-15T21:31:47.010Z,14.72
2023-05-15T21:34:14.700Z,14.56
2023-05-15T21:36:43.702Z,14.61
2023-05-15T21:39:11.676Z,14.63
2023-05-15T21:41:39.237Z,14.61
2023-05-15T21:44:07.101Z,14.55
2023-05-15T21:46:35.329Z,14.51
2023-05-15T21:49:03.550Z,14.48
2023-05-15T21:51:31.201Z,14.41
2023-05-15T21:53:58.724Z,14.39
2023-05-15T21:56:26.673Z,14.34
2023-05-15T21:58:54.335Z,14.30
2023-05-15T22:01:21.933Z,14.27
2023-05-15T22:03:49.752Z,14.12
2023-05-15T22:06:17.485Z,14.14
2023-05-15T22:08:45.077Z,14.08
2023-05-15T22:11:12.706Z,14.11
2023-05-15T22:13:40.307Z,14.09
2023-05-15T22:16:08.054Z,14.06
2023-05-15T22:18:35.802Z,14.00
2023-05-15T22:21:03.549Z,13.97
2023-05-15T22:23:32.270Z,13.95
2023-05-15T22:25:59.933Z,13.92
2023-05-15T22:28:27.602Z,13.93
2023-05-15T22:30:55.099Z,13.90
2023-05-15T22:33:25.806Z,13.89
2023-05-15T22:35:53.790Z,13.86
2023-05-15T22:38:21.412Z,13.83
2023-05-15T22:40:52.793Z,13.80
2023-05-15T22:43:22.168Z,13.78
2023-05-15T22:45:50.157Z,13.78
2023-05-15T22:48:17.951Z,13.77
2023-05-15T22:50:45.647Z,13.73
2023-05-15T22:53:13.523Z,13.72
2023-05-15T22:55:41.629Z,13.61
2023-05-15T22:58:09.490Z,13.61
2023-05-15T23:00:37.311Z,13.67
2023-05-15T23:03:05.184Z,13.62
2023-05-15T23:05:32.840Z,13.63
2023-05-15T23:08:00.534Z,13.59
2023-05-15T23:10:28.393Z,13.58
2023-05-15T23:12:58.763Z,13.55
2023-05-15T23:15:26.360Z,13.46
2023-05-15T23:17:54.127Z,13.48
2023-05-15T23:20:21.757Z,13.46
2023-05-15T23:22:49.528Z,13.44
2023-05-15T23:25:17.160Z,13.46
2023-05-15T23:27:44.829Z,13.46
2023-05-15T23:30:12.731Z,13.44
2023-05-15T23:32:40.346Z,13.35
2023-05-15T23:35:08.406Z,13.37
2023-05-15T23:37:36.034Z,13.39
2023-05-15T23:40:05.440Z,13.40
2023-05-15T23:42:33.102Z,13.38
2023-05-15T23:45:00.808Z,13.33
2023-05-15T23:47:28.506Z,13.33
2023-05-15T23:49:56.175Z,13.34
2023-05-15T23:52:23.819Z,13.34
2023-05-15T23:54:51.521Z,13.37
2023-05-15T23:57:19.051Z,13.33
2023-05-15T23:59:46.559Z,13.41
